sensor_id;sensor_type;location;lat;lon;timestamp;temperature;humidity
36552;DHT22;22559;54.176;12.102;2023-01-10T00:01:54;6.80;99.90
36552;DHT22;22559;54.176;12.102;2023-01-10T00:04:22;6.80;99.90
36552;DHT22;22559;54.176;12.102;2023-01-10T00:06:48;6.80;99.90
36552;DHT22;22559;54.176;12.102;2023-01-10T00:09:13;6.80;99.90
36552;DHT22;22559;54.176;12.102;2023-01-10T00:11:39;6.80;99.90
36552;DHT22;22559;54.176;12.102;2023-01-10T00:14:25;6.80;99.90
36552;DHT22;22559;54.176;12.102;2023-01-10T00:16:53;6.80;99.90
36552;DHT22;22559;54.176;12.102;2023-01-10T00:19:18;6.90;99.90
36552;DHT22;22559;54.176;12.102;2023-01-10T00:21:44;6.90;99.90
36552;DHT22;22559;54.176;12.102;2023-01-10T00:24:10;6.90;99.90
36552;DHT22;22559;54.176;12.102;2023-01-10T00:26:44;6.90;99.90
36552;DHT22;22559;54.176;12.102;2023-01-10T00:29:12;6.90;99.90
36552;DHT22;22559;54.176;12.102;2023-01-10T00:31:38;6.90;99.90
36552;DHT22;22559;54.176;12.102;2023-01-10T00:34:04;6.90;99.90
36552;DHT22;22559;54.176;12.102;2023-01-10T00:36:31;6.90;99.90
36552;DHT22;22559;54.176;12.102;2023-01-10T00:38:56;6.90;99.90
36552;DHT22;22559;54.176;12.102;2023-01-10T00:41:22;6.90;99.90
36552;DHT22;22559;54.176;12.102;2023-01-10T00:44:06;6.90;99.90
36552;DHT22;22559;54.176;12.102;2023-01-10T00:46:33;6.90;99.90
36552;DHT22;22559;54.176;12.102;2023-01-10T00:48:58;6.90;99.90
36552;DHT22;22559;54.176;12.102;2023-01-10T00:51:24;6.90;99.90
36552;DHT22;22559;54.176;12.102;2023-01-10T00:53:50;6.80;99.90
36552;DHT22;22559;54.176;12.102;2023-01-10T00:56:15;6.80;99.90
36552;DHT22;22559;54.176;12.102;2023-01-10T00:58:41;6.80;99.90
36552;DHT22;22559;54.176;12.102;2023-01-10T01:01:09;6.80;99.90
36552;DHT22;22559;54.176;12.102;2023-01-10T01:03:36;6.80;99.90
36552;DHT22;22559;54.176;12.102;2023-01-10T01:06:05;6.70;99.90
36552;DHT22;22559;54.176;12.102;2023-01-10T01:08:32;6.70;99.90
36552;DHT22;22559;54.176;12.102;2023-01-10T01:10:57;6.70;99.90
36552;DHT22;22559;54.176;12.102;2023-01-10T01:13:23;6.70;99.90
36552;DHT22;22559;54.176;12.102;2023-01-10T01:15:50;6.60;99.90
36552;DHT22;22559;54.176;12.102;2023-01-10T01:18:19;6.60;99.90
36552;DHT22;22559;54.176;12.102;2023-01-10T01:20:45;6.60;99.90
36552;DHT22;22559;54.176;12.102;2023-01-10T01:23:15;6.60;99.90
36552;DHT22;22559;54.176;12.102;2023-01-10T01:25:41;6.60;99.90
36552;DHT22;22559;54.176;12.102;2023-01-10T01:28:07;6.60;99.90
36552;DHT22;22559;54.176;12.102;2023-01-10T01:30:33;6.60;99.90
36552;DHT22;22559;54.176;12.102;2023-01-10T01:32:59;6.60;99.90
36552;DHT22;22559;54.176;12.102;2023-01-10T01:35:24;6.60;99.90
36552;DHT22;22559;54.176;12.102;2023-01-10T01:37:50;6.60;99.90
36552;DHT22;22559;54.176;12.102;2023-01-10T01:40:18;6.60;99.90
36552;DHT22;22559;54.176;12.102;2023-01-10T01:42:45;6.60;99.90
36552;DHT22;22559;54.176;12.102;2023-01-10T01:47:44;6.60;99.90
36552;DHT22;22559;54.176;12.102;2023-01-10T01:50:41;6.60;99.90
36552;DHT22;22559;54.176;12.102;2023-01-10T01:53:13;6.70;99.90
36552;DHT22;22559;54.176;12.102;2023-01-10T01:55:39;6.60;99.90
36552;DHT22;22559;54.176;12.102;2023-01-10T01:58:09;6.70;99.90
36552;DHT22;22559;54.176;12.102;2023-01-10T02:00:37;6.70;99.90
36552;DHT22;22559;54.176;12.102;2023-01-10T02:03:03;6.70;99.90
36552;DHT22;22559;54.176;12.102;2023-01-10T02:05:31;6.80;99.90
36552;DHT22;22559;54.176;12.102;2023-01-10T02:07:59;6.80;99.90
36552;DHT22;22559;54.176;12.102;2023-01-10T02:10:37;6.80;99.90
36552;DHT22;22559;54.176;12.102;2023-01-10T02:13:07;6.80;99.90
36552;DHT22;22559;54.176;12.102;2023-01-10T02:15:34;6.90;99.90
36552;DHT22;22559;54.176;12.102;2023-01-10T02:18:01;6.90;99.90
36552;DHT22;22559;54.176;12.102;2023-01-10T02:20:30;6.90;99.90
36552;DHT22;22559;54.176;12.102;2023-01-10T02:26:03;6.90;99.90
36552;DHT22;22559;54.176;12.102;2023-01-10T02:37:08;6.90;99.90
36552;DHT22;22559;54.176;12.102;2023-01-10T02:45:32;6.90;99.90
36552;DHT22;22559;54.176;12.102;2023-01-10T02:47:59;6.90;99.90
36552;DHT22;22559;54.176;12.102;2023-01-10T02:50:29;6.90;99.90
36552;DHT22;22559;54.176;12.102;2023-01-10T02:52:58;6.90;99.90
36552;DHT22;22559;54.176;12.102;2023-01-10T03:06:22;7.00;99.90
36552;DHT22;22559;54.176;12.102;2023-01-10T03:11:38;7.00;99.90
36552;DHT22;22559;54.176;12.102;2023-01-10T03:14:28;7.00;99.90
36552;DHT22;22559;54.176;12.102;2023-01-10T03:16:59;6.90;99.90
36552;DHT22;22559;54.176;12.102;2023-01-10T03:19:33;7.00;99.90
36552;DHT22;22559;54.176;12.102;2023-01-10T03:22:01;7.00;99.90
36552;DHT22;22559;54.176;12.102;2023-01-10T03:24:34;7.00;99.90
36552;DHT22;22559;54.176;12.102;2023-01-10T03:27:23;7.00;99.90
36552;DHT22;22559;54.176;12.102;2023-01-10T03:32:36;7.00;99.90
36552;DHT22;22559;54.176;12.102;2023-01-10T03:35:02;7.10;99.90
36552;DHT22;22559;54.176;12.102;2023-01-10T03:37:35;7.10;99.90
36552;DHT22;22559;54.176;12.102;2023-01-10T03:45:32;7.10;99.90
36552;DHT22;22559;54.176;12.102;2023-01-10T03:48:02;7.10;99.90
36552;DHT22;22559;54.176;12.102;2023-01-10T03:50:30;7.10;99.90
36552;DHT22;22559;54.176;12.102;2023-01-10T03:52:57;7.10;99.90
36552;DHT22;22559;54.176;12.102;2023-01-10T03:55:26;7.10;99.90
36552;DHT22;22559;54.176;12.102;2023-01-10T03:57:53;7.10;99.90
36552;DHT22;22559;54.176;12.102;2023-01-10T04:00:19;7.20;99.90
36552;DHT22;22559;54.176;12.102;2023-01-10T04:02:44;7.20;99.90
36552;DHT22;22559;54.176;12.102;2023-01-10T04:05:10;7.20;99.90
36552;DHT22;22559;54.176;12.102;2023-01-10T04:07:36;7.20;99.90
36552;DHT22;22559;54.176;12.102;2023-01-10T04:10:03;7.20;99.90
36552;DHT22;22559;54.176;12.102;2023-01-10T04:12:29;7.20;99.90
36552;DHT22;22559;54.176;12.102;2023-01-10T04:14:55;7.20;99.90
36552;DHT22;22559;54.176;12.102;2023-01-10T04:17:20;7.20;99.90
36552;DHT22;22559;54.176;12.102;2023-01-10T04:19:46;7.20;99.90
36552;DHT22;22559;54.176;12.102;2023-01-10T04:22:12;7.20;99.90
36552;DHT22;22559;54.176;12.102;2023-01-10T04:24:38;7.20;99.90
36552;DHT22;22559;54.176;12.102;2023-01-10T04:27:03;7.20;99.90
36552;DHT22;22559;54.176;12.102;2023-01-10T04:29:29;7.30;99.90
36552;DHT22;22559;54.176;12.102;2023-01-10T04:31:55;7.30;99.90
36552;DHT22;22559;54.176;12.102;2023-01-10T04:34:20;7.20;99.90
36552;DHT22;22559;54.176;12.102;2023-01-10T04:36:47;7.20;99.90
36552;DHT22;22559;54.176;12.102;2023-01-10T04:39:12;7.20;99.90
36552;DHT22;22559;54.176;12.102;2023-01-10T04:41:38;7.30;99.90
36552;DHT22;22559;54.176;12.102;2023-01-10T04:44:04;7.30;99.90
36552;DHT22;22559;54.176;12.102;2023-01-10T04:46:31;7.30;99.90
36552;DHT22;22559;54.176;12.102;2023-01-10T04:48:57;7.30;99.90
36552;DHT22;22559;54.176;12.102;2023-01-10T04:51:24;7.30;99.90
36552;DHT22;22559;54.176;12.102;2023-01-10T04:53:49;7.30;99.90
36552;DHT22;22559;54.176;12.102;2023-01-10T04:56:18;7.30;99.90
36552;DHT22;22559;54.176;12.102;2023-01-10T04:58:44;7.30;99.90
36552;DHT22;22559;54.176;12.102;2023-01-10T05:01:12;7.20;99.90
36552;DHT22;22559;54.176;12.102;2023-01-10T05:03:38;7.30;99.90
36552;DHT22;22559;54.176;12.102;2023-01-10T05:06:04;7.20;99.90
36552;DHT22;22559;54.176;12.102;2023-01-10T05:08:30;7.20;99.90
36552;DHT22;22559;54.176;12.102;2023-01-10T05:10:56;7.20;99.90
36552;DHT22;22559;54.176;12.102;2023-01-10T05:13:21;7.20;99.90
36552;DHT22;22559;54.176;12.102;2023-01-10T05:15:47;7.20;99.90
36552;DHT22;22559;54.176;12.102;2023-01-10T05:18:13;7.20;99.90
36552;DHT22;22559;54.176;12.102;2023-01-10T05:20:38;7.20;99.90
36552;DHT22;22559;54.176;12.102;2023-01-10T05:23:04;7.10;99.90
36552;DHT22;22559;54.176;12.102;2023-01-10T05:25:30;7.10;99.90
36552;DHT22;22559;54.176;12.102;2023-01-10T05:27:55;7.00;99.90
36552;DHT22;22559;54.176;12.102;2023-01-10T05:30:21;6.90;99.90
36552;DHT22;22559;54.176;12.102;2023-01-10T05:32:47;6.90;99.90
36552;DHT22;22559;54.176;12.102;2023-01-10T05:35:12;6.80;99.90
36552;DHT22;22559;54.176;12.102;2023-01-10T05:37:38;6.80;99.90
36552;DHT22;22559;54.176;12.102;2023-01-10T05:40:05;6.70;99.90
36552;DHT22;22559;54.176;12.102;2023-01-10T05:42:30;6.70;99.90
36552;DHT22;22559;54.176;12.102;2023-01-10T05:44:56;6.70;99.90
36552;DHT22;22559;54.176;12.102;2023-01-10T05:47:22;6.60;99.90
36552;DHT22;22559;54.176;12.102;2023-01-10T05:49:49;6.60;99.90
36552;DHT22;22559;54.176;12.102;2023-01-10T05:52:15;6.50;99.90
36552;DHT22;22559;54.176;12.102;2023-01-10T05:54:41;6.40;99.90
36552;DHT22;22559;54.176;12.102;2023-01-10T05:57:07;6.40;99.90
36552;DHT22;22559;54.176;12.102;2023-01-10T05:59:32;6.30;99.90
36552;DHT22;22559;54.176;12.102;2023-01-10T06:01:58;6.30;99.90
36552;DHT22;22559;54.176;12.102;2023-01-10T06:04:23;6.40;99.90
36552;DHT22;22559;54.176;12.102;2023-01-10T06:06:49;6.40;99.90
36552;DHT22;22559;54.176;12.102;2023-01-10T06:09:15;6.50;99.90
36552;DHT22;22559;54.176;12.102;2023-01-10T06:11:40;6.50;99.90
36552;DHT22;22559;54.176;12.102;2023-01-10T06:14:06;6.50;99.90
36552;DHT22;22559;54.176;12.102;2023-01-10T06:16:32;6.60;99.90
36552;DHT22;22559;54.176;12.102;2023-01-10T06:18:58;6.60;99.90
36552;DHT22;22559;54.176;12.102;2023-01-10T06:21:23;6.60;99.90
36552;DHT22;22559;54.176;12.102;2023-01-10T06:23:49;6.70;99.90
36552;DHT22;22559;54.176;12.102;2023-01-10T06:26:15;6.70;99.90
36552;DHT22;22559;54.176;12.102;2023-01-10T06:28:40;6.70;99.90
36552;DHT22;22559;54.176;12.102;2023-01-10T06:31:07;6.70;99.90
36552;DHT22;22559;54.176;12.102;2023-01-10T06:33:33;6.80;99.90
36552;DHT22;22559;54.176;12.102;2023-01-10T06:35:58;6.80;99.90
36552;DHT22;22559;54.176;12.102;2023-01-10T06:38:24;6.80;99.90
36552;DHT22;22559;54.176;12.102;2023-01-10T06:40:50;6.80;99.90
36552;DHT22;22559;54.176;12.102;2023-01-10T06:43:15;6.80;99.90
36552;DHT22;22559;54.176;12.102;2023-01-10T06:45:41;6.90;99.90
36552;DHT22;22559;54.176;12.102;2023-01-10T06:48:07;6.90;99.90
36552;DHT22;22559;54.176;12.102;2023-01-10T06:50:32;6.90;99.90
36552;DHT22;22559;54.176;12.102;2023-01-10T06:53:00;6.90;99.90
36552;DHT22;22559;54.176;12.102;2023-01-10T06:55:27;6.90;99.90
36552;DHT22;22559;54.176;12.102;2023-01-10T06:57:57;6.90;99.90
36552;DHT22;22559;54.176;12.102;2023-01-10T07:00:24;6.90;99.90
36552;DHT22;22559;54.176;12.102;2023-01-10T07:02:51;6.90;99.90
36552;DHT22;22559;54.176;12.102;2023-01-10T07:05:16;7.00;99.90
36552;DHT22;22559;54.176;12.102;2023-01-10T07:07:42;6.90;99.90
36552;DHT22;22559;54.176;12.102;2023-01-10T07:10:08;7.00;99.90
36552;DHT22;22559;54.176;12.102;2023-01-10T07:12:34;7.00;99.90
36552;DHT22;22559;54.176;12.102;2023-01-10T07:14:59;7.00;99.90
36552;DHT22;22559;54.176;12.102;2023-01-10T07:17:25;7.00;99.90
36552;DHT22;22559;54.176;12.102;2023-01-10T07:19:50;7.00;99.90
36552;DHT22;22559;54.176;12.102;2023-01-10T07:22:16;7.00;99.90
36552;DHT22;22559;54.176;12.102;2023-01-10T07:24:42;7.00;99.90
36552;DHT22;22559;54.176;12.102;2023-01-10T07:27:07;7.00;99.90
36552;DHT22;22559;54.176;12.102;2023-01-10T07:29:33;6.90;99.90
36552;DHT22;22559;54.176;12.102;2023-01-10T07:31:59;7.00;99.90
36552;DHT22;22559;54.176;12.102;2023-01-10T07:34:24;7.00;99.90
36552;DHT22;22559;54.176;12.102;2023-01-10T07:36:50;7.00;99.90
36552;DHT22;22559;54.176;12.102;2023-01-10T07:39:15;7.00;99.90
36552;DHT22;22559;54.176;12.102;2023-01-10T07:41:41;7.00;99.90
36552;DHT22;22559;54.176;12.102;2023-01-10T07:44:07;7.00;99.90
36552;DHT22;22559;54.176;12.102;2023-01-10T07:46:32;7.00;99.90
36552;DHT22;22559;54.176;12.102;2023-01-10T07:48:58;7.00;99.90
36552;DHT22;22559;54.176;12.102;2023-01-10T07:51:23;7.00;99.90
36552;DHT22;22559;54.176;12.102;2023-01-10T07:53:49;7.00;99.90
36552;DHT22;22559;54.176;12.102;2023-01-10T07:56:15;7.10;99.90
36552;DHT22;22559;54.176;12.102;2023-01-10T07:58:40;7.10;99.90
36552;DHT22;22559;54.176;12.102;2023-01-10T08:01:06;7.10;99.90
36552;DHT22;22559;54.176;12.102;2023-01-10T08:03:32;7.00;99.90
36552;DHT22;22559;54.176;12.102;2023-01-10T08:05:59;7.00;99.90
36552;DHT22;22559;54.176;12.102;2023-01-10T08:08:25;7.00;99.90
36552;DHT22;22559;54.176;12.102;2023-01-10T08:10:50;7.00;99.90
36552;DHT22;22559;54.176;12.102;2023-01-10T08:13:16;7.00;99.90
36552;DHT22;22559;54.176;12.102;2023-01-10T08:15:42;7.00;99.90
36552;DHT22;22559;54.176;12.102;2023-01-10T08:18:07;7.00;99.90
36552;DHT22;22559;54.176;12.102;2023-01-10T08:20:33;7.10;99.90
36552;DHT22;22559;54.176;12.102;2023-01-10T08:22:59;7.10;99.90
36552;DHT22;22559;54.176;12.102;2023-01-10T08:25:25;7.10;99.90
36552;DHT22;22559;54.176;12.102;2023-01-10T08:27:51;7.10;99.90
36552;DHT22;22559;54.176;12.102;2023-01-10T08:30:17;7.10;99.90
36552;DHT22;22559;54.176;12.102;2023-01-10T08:32:43;7.00;99.90
36552;DHT22;22559;54.176;12.102;2023-01-10T08:35:09;7.10;99.90
36552;DHT22;22559;54.176;12.102;2023-01-10T08:37:36;7.10;99.90
36552;DHT22;22559;54.176;12.102;2023-01-10T08:40:02;7.10;99.90
36552;DHT22;22559;54.176;12.102;2023-01-10T08:42:28;7.10;99.90
36552;DHT22;22559;54.176;12.102;2023-01-10T08:44:54;7.10;99.90
36552;DHT22;22559;54.176;12.102;2023-01-10T08:47:19;7.10;99.90
36552;DHT22;22559;54.176;12.102;2023-01-10T08:49:45;7.10;99.90
36552;DHT22;22559;54.176;12.102;2023-01-10T08:52:14;7.10;99.90
36552;DHT22;22559;54.176;12.102;2023-01-10T08:54:40;7.10;99.90
36552;DHT22;22559;54.176;12.102;2023-01-10T08:57:05;7.10;99.90
36552;DHT22;22559;54.176;12.102;2023-01-10T08:59:31;7.10;99.90
36552;DHT22;22559;54.176;12.102;2023-01-10T09:01:56;7.10;99.90
36552;DHT22;22559;54.176;12.102;2023-01-10T09:04:27;7.20;99.90
36552;DHT22;22559;54.176;12.102;2023-01-10T09:06:54;7.20;99.90
36552;DHT22;22559;54.176;12.102;2023-01-10T09:09:20;7.20;99.90
36552;DHT22;22559;54.176;12.102;2023-01-10T09:11:46;7.20;99.90
36552;DHT22;22559;54.176;12.102;2023-01-10T09:14:11;7.20;99.90
36552;DHT22;22559;54.176;12.102;2023-01-10T09:16:37;7.20;99.90
36552;DHT22;22559;54.176;12.102;2023-01-10T09:19:03;7.20;99.90
36552;DHT22;22559;54.176;12.102;2023-01-10T09:21:28;7.10;99.90
36552;DHT22;22559;54.176;12.102;2023-01-10T09:23:54;7.10;99.90
36552;DHT22;22559;54.176;12.102;2023-01-10T09:26:20;7.20;99.90
36552;DHT22;22559;54.176;12.102;2023-01-10T09:28:45;7.30;99.90
36552;DHT22;22559;54.176;12.102;2023-01-10T09:31:11;7.30;99.90
36552;DHT22;22559;54.176;12.102;2023-01-10T09:33:37;7.40;99.90
36552;DHT22;22559;54.176;12.102;2023-01-10T09:36:05;7.50;99.90
36552;DHT22;22559;54.176;12.102;2023-01-10T09:38:31;7.50;99.90
36552;DHT22;22559;54.176;12.102;2023-01-10T09:41:15;7.60;99.90
36552;DHT22;22559;54.176;12.102;2023-01-10T09:46:51;7.80;99.90
36552;DHT22;22559;54.176;12.102;2023-01-10T09:49:38;7.90;99.90
36552;DHT22;22559;54.176;12.102;2023-01-10T09:52:15;7.90;99.90
36552;DHT22;22559;54.176;12.102;2023-01-10T09:54:44;7.90;99.90
36552;DHT22;22559;54.176;12.102;2023-01-10T09:57:20;7.80;99.90
36552;DHT22;22559;54.176;12.102;2023-01-10T09:59:47;7.70;99.90
36552;DHT22;22559;54.176;12.102;2023-01-10T10:02:35;7.70;99.90
36552;DHT22;22559;54.176;12.102;2023-01-10T10:05:21;7.70;99.90
36552;DHT22;22559;54.176;12.102;2023-01-10T10:07:52;7.80;99.90
36552;DHT22;22559;54.176;12.102;2023-01-10T10:10:24;8.10;99.90
36552;DHT22;22559;54.176;12.102;2023-01-10T10:15:31;8.80;99.90
36552;DHT22;22559;54.176;12.102;2023-01-10T10:26:34;8.00;99.90
36552;DHT22;22559;54.176;12.102;2023-01-10T10:32:15;8.00;99.90
36552;DHT22;22559;54.176;12.102;2023-01-10T10:34:51;8.40;99.90
36552;DHT22;22559;54.176;12.102;2023-01-10T10:42:37;9.70;99.90
36552;DHT22;22559;54.176;12.102;2023-01-10T10:45:13;10.10;99.90
36552;DHT22;22559;54.176;12.102;2023-01-10T10:47:40;10.30;99.90
36552;DHT22;22559;54.176;12.102;2023-01-10T10:52:39;11.00;99.90
36552;DHT22;22559;54.176;12.102;2023-01-10T10:55:06;10.90;99.90
36552;DHT22;22559;54.176;12.102;2023-01-10T10:57:37;10.80;99.90
36552;DHT22;22559;54.176;12.102;2023-01-10T11:00:05;10.90;99.90
36552;DHT22;22559;54.176;12.102;2023-01-10T11:03:11;10.90;99.90
36552;DHT22;22559;54.176;12.102;2023-01-10T11:05:40;10.80;99.90
36552;DHT22;22559;54.176;12.102;2023-01-10T11:08:09;10.20;99.90
36552;DHT22;22559;54.176;12.102;2023-01-10T11:10:43;10.00;99.90
36552;DHT22;22559;54.176;12.102;2023-01-10T11:15:52;10.30;99.90
36552;DHT22;22559;54.176;12.102;2023-01-10T11:18:23;10.30;99.90
36552;DHT22;22559;54.176;12.102;2023-01-10T11:20:53;10.70;99.90
36552;DHT22;22559;54.176;12.102;2023-01-10T11:26:26;10.50;99.90
36552;DHT22;22559;54.176;12.102;2023-01-10T11:29:05;10.20;99.90
36552;DHT22;22559;54.176;12.102;2023-01-10T11:31:31;9.80;99.90
36552;DHT22;22559;54.176;12.102;2023-01-10T11:33:58;9.50;99.90
36552;DHT22;22559;54.176;12.102;2023-01-10T11:36:23;9.40;99.90
36552;DHT22;22559;54.176;12.102;2023-01-10T11:39:03;9.40;99.90
36552;DHT22;22559;54.176;12.102;2023-01-10T11:41:29;9.70;99.90
36552;DHT22;22559;54.176;12.102;2023-01-10T11:44:16;9.60;99.90
36552;DHT22;22559;54.176;12.102;2023-01-10T11:46:44;9.40;99.90
36552;DHT22;22559;54.176;12.102;2023-01-10T11:49:12;9.30;99.90
36552;DHT22;22559;54.176;12.102;2023-01-10T11:51:46;9.00;99.90
36552;DHT22;22559;54.176;12.102;2023-01-10T11:54:20;8.80;99.90
36552;DHT22;22559;54.176;12.102;2023-01-10T11:59:39;8.50;99.90
36552;DHT22;22559;54.176;12.102;2023-01-10T12:02:25;8.40;99.90
36552;DHT22;22559;54.176;12.102;2023-01-10T12:04:54;8.40;99.90
36552;DHT22;22559;54.176;12.102;2023-01-10T12:07:21;8.30;99.90
36552;DHT22;22559;54.176;12.102;2023-01-10T12:12:31;8.20;99.90
36552;DHT22;22559;54.176;12.102;2023-01-10T12:15:21;8.20;99.90
36552;DHT22;22559;54.176;12.102;2023-01-10T12:17:47;8.10;99.90
36552;DHT22;22559;54.176;12.102;2023-01-10T12:20:13;8.10;99.90
36552;DHT22;22559;54.176;12.102;2023-01-10T12:22:41;8.00;99.90
36552;DHT22;22559;54.176;12.102;2023-01-10T12:25:32;7.90;99.90
36552;DHT22;22559;54.176;12.102;2023-01-10T12:27:59;7.90;99.90
36552;DHT22;22559;54.176;12.102;2023-01-10T12:30:32;7.80;99.90
36552;DHT22;22559;54.176;12.102;2023-01-10T12:33:10;7.80;99.90
36552;DHT22;22559;54.176;12.102;2023-01-10T12:35:54;7.70;99.90
36552;DHT22;22559;54.176;12.102;2023-01-10T12:38:24;7.70;99.90
36552;DHT22;22559;54.176;12.102;2023-01-10T12:41:14;7.60;99.90
36552;DHT22;22559;54.176;12.102;2023-01-10T12:44:04;7.60;99.90
36552;DHT22;22559;54.176;12.102;2023-01-10T12:46:43;7.60;99.90
36552;DHT22;22559;54.176;12.102;2023-01-10T12:51:50;7.60;99.90
36552;DHT22;22559;54.176;12.102;2023-01-10T12:54:22;7.60;99.90
36552;DHT22;22559;54.176;12.102;2023-01-10T12:56:49;7.60;99.90
36552;DHT22;22559;54.176;12.102;2023-01-10T12:59:16;7.60;99.90
36552;DHT22;22559;54.176;12.102;2023-01-10T13:01:52;7.60;99.90
36552;DHT22;22559;54.176;12.102;2023-01-10T13:04:21;7.60;99.90
36552;DHT22;22559;54.176;12.102;2023-01-10T13:06:49;7.70;99.90
36552;DHT22;22559;54.176;12.102;2023-01-10T13:09:21;7.70;99.90
36552;DHT22;22559;54.176;12.102;2023-01-10T13:12:08;7.70;99.90
36552;DHT22;22559;54.176;12.102;2023-01-10T13:22:41;7.70;99.90
36552;DHT22;22559;54.176;12.102;2023-01-10T13:25:32;7.70;99.90
36552;DHT22;22559;54.176;12.102;2023-01-10T13:28:06;7.80;99.90
36552;DHT22;22559;54.176;12.102;2023-01-10T13:30:37;7.80;99.90
36552;DHT22;22559;54.176;12.102;2023-01-10T13:35:43;7.80;99.90
36552;DHT22;22559;54.176;12.102;2023-01-10T13:40:57;7.90;99.90
36552;DHT22;22559;54.176;12.102;2023-01-10T13:43:36;7.90;99.90
36552;DHT22;22559;54.176;12.102;2023-01-10T13:51:19;7.90;99.90
36552;DHT22;22559;54.176;12.102;2023-01-10T13:59:01;7.80;99.90
36552;DHT22;22559;54.176;12.102;2023-01-10T14:01:53;7.90;99.90
36552;DHT22;22559;54.176;12.102;2023-01-10T14:04:52;7.90;99.90
36552;DHT22;22559;54.176;12.102;2023-01-10T14:07:24;7.80;99.90
36552;DHT22;22559;54.176;12.102;2023-01-10T14:09:52;7.80;99.90
36552;DHT22;22559;54.176;12.102;2023-01-10T14:12:24;7.80;99.90
36552;DHT22;22559;54.176;12.102;2023-01-10T14:18:06;7.80;99.90
36552;DHT22;22559;54.176;12.102;2023-01-10T14:20:34;7.80;99.90
36552;DHT22;22559;54.176;12.102;2023-01-10T14:23:19;7.80;99.90
36552;DHT22;22559;54.176;12.102;2023-01-10T14:25:52;7.80;99.90
36552;DHT22;22559;54.176;12.102;2023-01-10T14:28:26;7.90;99.90
36552;DHT22;22559;54.176;12.102;2023-01-10T14:31:06;7.80;99.90
36552;DHT22;22559;54.176;12.102;2023-01-10T14:33:35;7.80;99.90
36552;DHT22;22559;54.176;12.102;2023-01-10T14:36:08;7.80;99.90
36552;DHT22;22559;54.176;12.102;2023-01-10T14:38:38;7.80;99.90
36552;DHT22;22559;54.176;12.102;2023-01-10T14:43:41;7.80;99.90
36552;DHT22;22559;54.176;12.102;2023-01-10T14:46:14;7.80;99.90
36552;DHT22;22559;54.176;12.102;2023-01-10T14:53:57;7.80;99.90
36552;DHT22;22559;54.176;12.102;2023-01-10T14:56:44;7.80;99.90
36552;DHT22;22559;54.176;12.102;2023-01-10T14:59:24;7.80;99.90
36552;DHT22;22559;54.176;12.102;2023-01-10T15:02:33;7.80;99.90
36552;DHT22;22559;54.176;12.102;2023-01-10T15:07:24;7.80;99.90
36552;DHT22;22559;54.176;12.102;2023-01-10T15:09:52;7.80;99.90
36552;DHT22;22559;54.176;12.102;2023-01-10T15:12:20;7.70;99.90
36552;DHT22;22559;54.176;12.102;2023-01-10T15:14:48;7.70;99.90
36552;DHT22;22559;54.176;12.102;2023-01-10T15:17:17;7.70;99.90
36552;DHT22;22559;54.176;12.102;2023-01-10T15:19:45;7.60;99.90
36552;DHT22;22559;54.176;12.102;2023-01-10T15:25:03;7.70;99.90
36552;DHT22;22559;54.176;12.102;2023-01-10T15:27:30;7.60;99.90
36552;DHT22;22559;54.176;12.102;2023-01-10T15:29:57;7.70;99.90
36552;DHT22;22559;54.176;12.102;2023-01-10T15:32:36;7.60;99.90
36552;DHT22;22559;54.176;12.102;2023-01-10T15:35:06;7.60;99.90
36552;DHT22;22559;54.176;12.102;2023-01-10T15:37:37;7.60;99.90
36552;DHT22;22559;54.176;12.102;2023-01-10T15:40:07;7.60;99.90
36552;DHT22;22559;54.176;12.102;2023-01-10T15:42:43;7.60;99.90
36552;DHT22;22559;54.176;12.102;2023-01-10T15:45:21;7.60;99.90
36552;DHT22;22559;54.176;12.102;2023-01-10T15:47:51;7.60;99.90
36552;DHT22;22559;54.176;12.102;2023-01-10T15:50:29;7.50;99.90
36552;DHT22;22559;54.176;12.102;2023-01-10T15:53:02;7.50;99.90
36552;DHT22;22559;54.176;12.102;2023-01-10T15:58:36;7.50;99.90
36552;DHT22;22559;54.176;12.102;2023-01-10T16:01:02;7.50;99.90
36552;DHT22;22559;54.176;12.102;2023-01-10T16:03:34;7.50;99.90
36552;DHT22;22559;54.176;12.102;2023-01-10T16:06:01;7.50;99.90
36552;DHT22;22559;54.176;12.102;2023-01-10T16:08:32;7.50;99.90
36552;DHT22;22559;54.176;12.102;2023-01-10T16:11:02;7.50;99.90
36552;DHT22;22559;54.176;12.102;2023-01-10T16:13:29;7.50;99.90
36552;DHT22;22559;54.176;12.102;2023-01-10T16:16:00;7.50;99.90
36552;DHT22;22559;54.176;12.102;2023-01-10T16:18:27;7.50;99.90
36552;DHT22;22559;54.176;12.102;2023-01-10T16:20:59;7.50;99.90
36552;DHT22;22559;54.176;12.102;2023-01-10T16:23:29;7.50;99.90
36552;DHT22;22559;54.176;12.102;2023-01-10T16:25:59;7.50;99.90
36552;DHT22;22559;54.176;12.102;2023-01-10T16:28:26;7.50;99.90
36552;DHT22;22559;54.176;12.102;2023-01-10T16:30:53;7.50;99.90
36552;DHT22;22559;54.176;12.102;2023-01-10T16:33:21;7.50;99.90
36552;DHT22;22559;54.176;12.102;2023-01-10T16:35:50;7.40;99.90
36552;DHT22;22559;54.176;12.102;2023-01-10T16:38:17;7.40;99.90
36552;DHT22;22559;54.176;12.102;2023-01-10T16:40:51;7.40;99.90
36552;DHT22;22559;54.176;12.102;2023-01-10T16:43:18;7.40;99.90
36552;DHT22;22559;54.176;12.102;2023-01-10T16:45:49;7.40;99.90
36552;DHT22;22559;54.176;12.102;2023-01-10T16:48:15;7.50;99.90
36552;DHT22;22559;54.176;12.102;2023-01-10T16:50:42;7.50;99.90
36552;DHT22;22559;54.176;12.102;2023-01-10T16:53:15;7.40;99.90
36552;DHT22;22559;54.176;12.102;2023-01-10T16:58:11;7.40;99.90
36552;DHT22;22559;54.176;12.102;2023-01-10T17:00:38;7.40;99.90
36552;DHT22;22559;54.176;12.102;2023-01-10T17:03:12;7.40;99.90
36552;DHT22;22559;54.176;12.102;2023-01-10T17:05:39;7.40;99.90
36552;DHT22;22559;54.176;12.102;2023-01-10T17:08:05;7.40;99.90
36552;DHT22;22559;54.176;12.102;2023-01-10T17:10:33;7.40;99.90
36552;DHT22;22559;54.176;12.102;2023-01-10T17:13:01;7.40;99.90
36552;DHT22;22559;54.176;12.102;2023-01-10T17:15:28;7.40;99.90
36552;DHT22;22559;54.176;12.102;2023-01-10T17:17:54;7.30;99.90
36552;DHT22;22559;54.176;12.102;2023-01-10T17:20:20;7.40;99.90
36552;DHT22;22559;54.176;12.102;2023-01-10T17:22:46;7.40;99.90
36552;DHT22;22559;54.176;12.102;2023-01-10T17:25:15;7.40;99.90
36552;DHT22;22559;54.176;12.102;2023-01-10T17:27:42;7.40;99.90
36552;DHT22;22559;54.176;12.102;2023-01-10T17:30:09;7.40;99.90
36552;DHT22;22559;54.176;12.102;2023-01-10T17:32:35;7.30;99.90
36552;DHT22;22559;54.176;12.102;2023-01-10T17:35:00;7.30;99.90
36552;DHT22;22559;54.176;12.102;2023-01-10T17:37:26;7.30;99.90
36552;DHT22;22559;54.176;12.102;2023-01-10T17:39:51;7.30;99.90
36552;DHT22;22559;54.176;12.102;2023-01-10T17:42:17;7.30;99.90
36552;DHT22;22559;54.176;12.102;2023-01-10T17:44:43;7.30;99.90
36552;DHT22;22559;54.176;12.102;2023-01-10T17:47:08;7.20;99.90
36552;DHT22;22559;54.176;12.102;2023-01-10T17:49:35;7.20;99.90